JBU1293 KBOS-KILM
Flight info
| Callsign | JBU1293 |
|---|---|
| Flight time | 1h 51m |
| Altitude | 38000 |
| Route | SSOXS7 SSOXS Q167 ZJAAY SAWED PAACK |
| Aircraft | A320/M-SDE3FGHIRWY/LB1 |
Departure
| Time | 2026-05-08 01:16 |
|---|---|
| Airport | Boston Logan International Airport (KBOS) |
Arrival
| Time | 2026-05-08 03:08 |
|---|---|
| Airport | Wilmington International Airport (KILM) |
| Time | Latitude | Longitude | Altitude | Speed | Heading |
|---|---|---|---|---|---|
| 2026-05-08 00:41 | 42.36559 | -71.01602 | 26 ft | 0 kts | 19° |
| 2026-05-08 01:04 | 42.36558 | -71.01603 | 25 ft | 2 kts | 19° |
| 2026-05-08 01:04 | 42.36535 | -71.01614 | 36 ft | 4 kts | 19° |
| 2026-05-08 01:04 | 42.36515 | -71.01623 | 31 ft | 4 kts | 14° |
| 2026-05-08 01:04 | 42.36488 | -71.01630 | 28 ft | 4 kts | 7° |
| 2026-05-08 01:05 | 42.36463 | -71.01637 | 27 ft | 4 kts | 37° |
| 2026-05-08 01:05 | 42.36458 | -71.01638 | 27 ft | 4 kts | 79° |
| 2026-05-08 01:05 | 42.36453 | -71.01604 | 29 ft | 4 kts | 112° |
| 2026-05-08 01:05 | 42.36445 | -71.01585 | 29 ft | 0 kts | 121° |
| 2026-05-08 01:07 | 42.36437 | -71.01567 | 30 ft | 6 kts | 122° |
| 2026-05-08 01:07 | 42.36407 | -71.01501 | 26 ft | 9 kts | 120° |
| 2026-05-08 01:08 | 42.36376 | -71.01414 | 29 ft | 11 kts | 112° |
| 2026-05-08 01:08 | 42.36336 | -71.01314 | 30 ft | 13 kts | 121° |
| 2026-05-08 01:08 | 42.36284 | -71.01200 | 25 ft | 15 kts | 120° |
| 2026-05-08 01:08 | 42.36236 | -71.01073 | 28 ft | 11 kts | 114° |
| 2026-05-08 01:09 | 42.36209 | -71.00993 | 25 ft | 8 kts | 114° |
| 2026-05-08 01:09 | 42.36188 | -71.00929 | 27 ft | 8 kts | 114° |
| 2026-05-08 01:09 | 42.36156 | -71.00830 | 27 ft | 15 kts | 114° |
| 2026-05-08 01:09 | 42.36108 | -71.00669 | 26 ft | 20 kts | 109° |
| 2026-05-08 01:10 | 42.36065 | -71.00502 | 27 ft | 17 kts | 110° |
| 2026-05-08 01:10 | 42.36026 | -71.00342 | 27 ft | 16 kts | 108° |
| 2026-05-08 01:10 | 42.35994 | -71.00221 | 27 ft | 14 kts | 109° |
| 2026-05-08 01:10 | 42.35955 | -71.00098 | 27 ft | 15 kts | 120° |
| 2026-05-08 01:11 | 42.35883 | -70.99985 | 25 ft | 17 kts | 135° |
| 2026-05-08 01:11 | 42.35796 | -70.99868 | 25 ft | 19 kts | 135° |
| 2026-05-08 01:11 | 42.35700 | -70.99740 | 25 ft | 20 kts | 135° |
| 2026-05-08 01:11 | 42.35597 | -70.99604 | 25 ft | 19 kts | 135° |
| 2026-05-08 01:12 | 42.35523 | -70.99501 | 26 ft | 10 kts | 135° |
| 2026-05-08 01:12 | 42.35494 | -70.99455 | 27 ft | 3 kts | 116° |
| 2026-05-08 01:12 | 42.35490 | -70.99426 | 27 ft | 4 kts | 96° |
| 2026-05-08 01:12 | 42.35494 | -70.99380 | 25 ft | 4 kts | 78° |
| 2026-05-08 01:13 | 42.35494 | -70.99377 | 25 ft | 0 kts | 78° |
| 2026-05-08 01:14 | 42.35494 | -70.99376 | 25 ft | 2 kts | 78° |
| 2026-05-08 01:15 | 42.35501 | -70.99330 | 30 ft | 6 kts | 78° |
| 2026-05-08 01:15 | 42.35523 | -70.99270 | 26 ft | 8 kts | 36° |
| 2026-05-08 01:15 | 42.35548 | -70.99278 | 25 ft | 0 kts | 316° |
| 2026-05-08 01:15 | 42.35552 | -70.99284 | 25 ft | 5 kts | 316° |
| 2026-05-08 01:16 | 42.35747 | -70.99543 | 25 ft | 73 kts | 315° |
| 2026-05-08 01:16 | 42.36244 | -71.00211 | 23 ft | 126 kts | 315° |
| 2026-05-08 01:16 | 42.36967 | -71.01174 | 117 ft | 158 kts | 316° |
| 2026-05-08 01:16 | 42.37741 | -71.02195 | 772 ft | 154 kts | 315° |
| 2026-05-08 01:17 | 42.38479 | -71.03276 | 1314 ft | 161 kts | 303° |
| 2026-05-08 01:17 | 42.39061 | -71.04695 | 1579 ft | 183 kts | 299° |
| 2026-05-08 01:17 | 42.39726 | -71.06292 | 1838 ft | 209 kts | 299° |
| 2026-05-08 01:17 | 42.40487 | -71.08094 | 2186 ft | 234 kts | 297° |
| 2026-05-08 01:18 | 42.40970 | -71.10240 | 2927 ft | 246 kts | 274° |
| 2026-05-08 01:18 | 42.40561 | -71.12496 | 3820 ft | 254 kts | 245° |
| 2026-05-08 01:18 | 42.39584 | -71.14494 | 4731 ft | 260 kts | 235° |
| 2026-05-08 01:18 | 42.38419 | -71.16392 | 5633 ft | 264 kts | 232° |
| 2026-05-08 01:19 | 42.37108 | -71.18154 | 6485 ft | 271 kts | 217° |
| 2026-05-08 01:19 | 42.35383 | -71.19238 | 7311 ft | 278 kts | 198° |
| 2026-05-08 01:19 | 42.33440 | -71.19521 | 8166 ft | 286 kts | 179° |
| 2026-05-08 01:19 | 42.31482 | -71.18891 | 9015 ft | 294 kts | 164° |
| 2026-05-08 01:20 | 42.29546 | -71.17964 | 9817 ft | 297 kts | 164° |
| 2026-05-08 01:20 | 42.27603 | -71.17017 | 10356 ft | 310 kts | 163° |
| 2026-05-08 01:20 | 42.25576 | -71.15701 | 10521 ft | 337 kts | 153° |
| 2026-05-08 01:20 | 42.23603 | -71.13769 | 10693 ft | 362 kts | 142° |
| 2026-05-08 01:21 | 42.21688 | -71.11491 | 11202 ft | 371 kts | 142° |
| 2026-05-08 01:21 | 42.19725 | -71.09187 | 11834 ft | 375 kts | 143° |
| 2026-05-08 01:21 | 42.17742 | -71.06879 | 12462 ft | 379 kts | 144° |
| 2026-05-08 01:21 | 42.15735 | -71.04557 | 13128 ft | 382 kts | 146° |
| 2026-05-08 01:22 | 42.13597 | -71.02448 | 13774 ft | 382 kts | 152° |
| 2026-05-08 01:22 | 42.11404 | -71.00406 | 14398 ft | 384 kts | 153° |
| 2026-05-08 01:22 | 42.09201 | -70.98352 | 15037 ft | 386 kts | 153° |
| 2026-05-08 01:22 | 42.06991 | -70.96291 | 15672 ft | 387 kts | 154° |
| 2026-05-08 01:23 | 42.04777 | -70.94226 | 16302 ft | 388 kts | 154° |
| 2026-05-08 01:23 | 42.02552 | -70.92150 | 16947 ft | 390 kts | 155° |
| 2026-05-08 01:23 | 42.00349 | -70.90093 | 17574 ft | 392 kts | 155° |
| 2026-05-08 01:23 | 41.98103 | -70.87997 | 18177 ft | 394 kts | 155° |
| 2026-05-08 01:24 | 41.95840 | -70.85895 | 18686 ft | 398 kts | 155° |
| 2026-05-08 01:24 | 41.93549 | -70.83772 | 19218 ft | 402 kts | 155° |
| 2026-05-08 01:24 | 41.91241 | -70.81634 | 19744 ft | 405 kts | 155° |
| 2026-05-08 01:24 | 41.88840 | -70.79710 | 20254 ft | 398 kts | 165° |
| 2026-05-08 01:25 | 41.86270 | -70.78471 | 20745 ft | 387 kts | 176° |
| 2026-05-08 01:25 | 41.83642 | -70.77943 | 21218 ft | 378 kts | 186° |
| 2026-05-08 01:25 | 41.81044 | -70.78093 | 21676 ft | 371 kts | 196° |
| 2026-05-08 01:25 | 41.78558 | -70.78866 | 22075 ft | 365 kts | 205° |
| 2026-05-08 01:26 | 41.76236 | -70.80211 | 22487 ft | 362 kts | 214° |
| 2026-05-08 01:26 | 41.74044 | -70.81872 | 22923 ft | 364 kts | 215° |
| 2026-05-08 01:26 | 41.71825 | -70.83548 | 23359 ft | 367 kts | 215° |
| 2026-05-08 01:26 | 41.69590 | -70.85227 | 23718 ft | 370 kts | 215° |
| 2026-05-08 01:27 | 41.67363 | -70.86891 | 24074 ft | 372 kts | 215° |
| 2026-05-08 01:27 | 41.65096 | -70.88581 | 24475 ft | 374 kts | 215° |
| 2026-05-08 01:27 | 41.62823 | -70.90276 | 24872 ft | 374 kts | 215° |
| 2026-05-08 01:27 | 41.60544 | -70.91974 | 25208 ft | 376 kts | 216° |
| 2026-05-08 01:28 | 41.58251 | -70.93684 | 25535 ft | 378 kts | 216° |
| 2026-05-08 01:28 | 41.56034 | -70.95556 | 25872 ft | 375 kts | 223° |
| 2026-05-08 01:28 | 41.54112 | -70.97872 | 26221 ft | 371 kts | 231° |
| 2026-05-08 01:28 | 41.52525 | -71.00576 | 26567 ft | 370 kts | 239° |
| 2026-05-08 01:29 | 41.51104 | -71.03440 | 26917 ft | 371 kts | 239° |
| 2026-05-08 01:29 | 41.49666 | -71.06317 | 27263 ft | 373 kts | 239° |
| 2026-05-08 01:29 | 41.48220 | -71.09197 | 27592 ft | 375 kts | 239° |
| 2026-05-08 01:29 | 41.46786 | -71.12049 | 27919 ft | 376 kts | 239° |
| 2026-05-08 01:30 | 41.45326 | -71.14948 | 28269 ft | 377 kts | 239° |
| 2026-05-08 01:30 | 41.43867 | -71.17848 | 28675 ft | 376 kts | 239° |
| 2026-05-08 01:30 | 41.42415 | -71.20729 | 29160 ft | 374 kts | 239° |
| 2026-05-08 01:30 | 41.40968 | -71.23598 | 29656 ft | 372 kts | 239° |
| 2026-05-08 01:31 | 41.39530 | -71.26449 | 30118 ft | 370 kts | 239° |
| 2026-05-08 01:31 | 41.38099 | -71.29284 | 30533 ft | 368 kts | 239° |
| 2026-05-08 01:31 | 41.36673 | -71.32110 | 30923 ft | 367 kts | 239° |
| 2026-05-08 01:31 | 41.35249 | -71.34930 | 31318 ft | 366 kts | 239° |
| 2026-05-08 01:32 | 41.33831 | -71.37742 | 31721 ft | 365 kts | 239° |
| 2026-05-08 01:32 | 41.32437 | -71.40508 | 32117 ft | 364 kts | 239° |
| 2026-05-08 01:32 | 41.31028 | -71.43301 | 32520 ft | 363 kts | 239° |
| 2026-05-08 01:32 | 41.29617 | -71.46091 | 32932 ft | 362 kts | 239° |
| 2026-05-08 01:33 | 41.28211 | -71.48865 | 33324 ft | 362 kts | 239° |
| 2026-05-08 01:33 | 41.26807 | -71.51630 | 33727 ft | 361 kts | 239° |
| 2026-05-08 01:33 | 41.25404 | -71.54392 | 34091 ft | 360 kts | 239° |
| 2026-05-08 01:33 | 41.24009 | -71.57142 | 34484 ft | 358 kts | 239° |
| 2026-05-08 01:34 | 41.22618 | -71.59882 | 34847 ft | 357 kts | 239° |
| 2026-05-08 01:34 | 41.21233 | -71.62606 | 35170 ft | 355 kts | 239° |
| 2026-05-08 01:34 | 41.19851 | -71.65323 | 35477 ft | 355 kts | 239° |
| 2026-05-08 01:34 | 41.18489 | -71.67995 | 35765 ft | 354 kts | 239° |
| 2026-05-08 01:35 | 41.17108 | -71.70698 | 36057 ft | 353 kts | 239° |
| 2026-05-08 01:35 | 41.15730 | -71.73396 | 36328 ft | 353 kts | 239° |
| 2026-05-08 01:35 | 41.14353 | -71.76088 | 36565 ft | 352 kts | 238° |
| 2026-05-08 01:35 | 41.12983 | -71.78769 | 36844 ft | 351 kts | 238° |
| 2026-05-08 01:36 | 41.11615 | -71.81453 | 37114 ft | 351 kts | 238° |
| 2026-05-08 01:36 | 41.10255 | -71.84127 | 37368 ft | 350 kts | 238° |
| 2026-05-08 01:36 | 41.08896 | -71.86806 | 37616 ft | 349 kts | 238° |
| 2026-05-08 01:36 | 41.07540 | -71.89474 | 37832 ft | 350 kts | 238° |
| 2026-05-08 01:37 | 41.06194 | -71.92115 | 37922 ft | 352 kts | 238° |
| 2026-05-08 01:37 | 41.03480 | -71.97527 | 37894 ft | 352 kts | 243° |
| 2026-05-08 01:38 | 41.01380 | -72.03389 | 37895 ft | 352 kts | 245° |
| 2026-05-08 01:38 | 40.99305 | -72.09272 | 37855 ft | 353 kts | 245° |
| 2026-05-08 01:39 | 40.97237 | -72.15111 | 37888 ft | 353 kts | 245° |
| 2026-05-08 01:39 | 40.95159 | -72.20995 | 37891 ft | 353 kts | 245° |
| 2026-05-08 01:40 | 40.93080 | -72.26878 | 37926 ft | 353 kts | 245° |
| 2026-05-08 01:40 | 40.90558 | -72.32453 | 37914 ft | 358 kts | 232° |
| 2026-05-08 01:41 | 40.87032 | -72.37100 | 37908 ft | 361 kts | 230° |
| 2026-05-08 01:41 | 40.83456 | -72.41766 | 37846 ft | 362 kts | 230° |
| 2026-05-08 01:42 | 40.79853 | -72.46408 | 37888 ft | 364 kts | 226° |
| 2026-05-08 01:42 | 40.75934 | -72.50674 | 37880 ft | 366 kts | 225° |
| 2026-05-08 01:43 | 40.72005 | -72.54936 | 37890 ft | 366 kts | 225° |
| 2026-05-08 01:43 | 40.68101 | -72.59166 | 37894 ft | 365 kts | 226° |
| 2026-05-08 01:44 | 40.64265 | -72.63541 | 37848 ft | 364 kts | 227° |
| 2026-05-08 01:44 | 40.60479 | -72.67961 | 37870 ft | 364 kts | 227° |
| 2026-05-08 01:45 | 40.56675 | -72.72374 | 37878 ft | 365 kts | 227° |
| 2026-05-08 01:45 | 40.52844 | -72.76768 | 37891 ft | 365 kts | 227° |
| 2026-05-08 01:46 | 40.49037 | -72.81123 | 37897 ft | 366 kts | 227° |
| 2026-05-08 01:46 | 40.45196 | -72.85501 | 37863 ft | 366 kts | 227° |
| 2026-05-08 01:47 | 40.41352 | -72.89880 | 37879 ft | 366 kts | 227° |
| 2026-05-08 01:47 | 40.37502 | -72.94258 | 37896 ft | 366 kts | 227° |
| 2026-05-08 01:48 | 40.31747 | -73.00802 | 37920 ft | 367 kts | 227° |
| 2026-05-08 01:48 | 40.27885 | -73.05188 | 37851 ft | 368 kts | 227° |
| 2026-05-08 01:49 | 40.24009 | -73.09574 | 37876 ft | 368 kts | 227° |
| 2026-05-08 01:49 | 40.20129 | -73.13962 | 37889 ft | 369 kts | 227° |
| 2026-05-08 01:50 | 40.16270 | -73.18320 | 37904 ft | 369 kts | 227° |
| 2026-05-08 01:50 | 40.12383 | -73.22706 | 37909 ft | 369 kts | 227° |
| 2026-05-08 01:51 | 40.08479 | -73.27099 | 37894 ft | 372 kts | 227° |
| 2026-05-08 01:51 | 40.04552 | -73.31506 | 37927 ft | 373 kts | 227° |
| 2026-05-08 01:52 | 40.00615 | -73.35914 | 37924 ft | 373 kts | 227° |
| 2026-05-08 01:52 | 39.96696 | -73.40289 | 37925 ft | 373 kts | 227° |
| 2026-05-08 01:53 | 39.92749 | -73.44695 | 37862 ft | 374 kts | 227° |
| 2026-05-08 01:53 | 39.88794 | -73.49105 | 37888 ft | 375 kts | 227° |
| 2026-05-08 01:54 | 39.84848 | -73.53493 | 37902 ft | 376 kts | 227° |
| 2026-05-08 01:54 | 39.80878 | -73.57912 | 37914 ft | 376 kts | 227° |
| 2026-05-08 01:55 | 39.76905 | -73.62334 | 37920 ft | 376 kts | 227° |
| 2026-05-08 01:55 | 39.72924 | -73.66757 | 37921 ft | 377 kts | 227° |
| 2026-05-08 01:56 | 39.68939 | -73.71175 | 37926 ft | 377 kts | 227° |
| 2026-05-08 01:56 | 39.64970 | -73.75569 | 37930 ft | 377 kts | 227° |
| 2026-05-08 01:57 | 39.60975 | -73.79993 | 37932 ft | 378 kts | 227° |
| 2026-05-08 01:57 | 39.56974 | -73.84409 | 37934 ft | 378 kts | 227° |
| 2026-05-08 01:58 | 39.52971 | -73.88824 | 37940 ft | 378 kts | 227° |
| 2026-05-08 01:58 | 39.48993 | -73.93207 | 37939 ft | 378 kts | 227° |
| 2026-05-08 01:59 | 39.44987 | -73.97607 | 37938 ft | 378 kts | 227° |
| 2026-05-08 01:59 | 39.40977 | -74.01996 | 37949 ft | 378 kts | 227° |
| 2026-05-08 02:00 | 39.36975 | -74.06373 | 37899 ft | 377 kts | 227° |
| 2026-05-08 02:00 | 39.32999 | -74.10720 | 37909 ft | 377 kts | 227° |
| 2026-05-08 02:01 | 39.28986 | -74.15091 | 37921 ft | 378 kts | 227° |
| 2026-05-08 02:01 | 39.24965 | -74.19467 | 37928 ft | 378 kts | 227° |
| 2026-05-08 02:02 | 39.20943 | -74.23843 | 37929 ft | 378 kts | 227° |
| 2026-05-08 02:02 | 39.16915 | -74.28216 | 37873 ft | 378 kts | 227° |
| 2026-05-08 02:03 | 39.12914 | -74.32551 | 37903 ft | 378 kts | 227° |
| 2026-05-08 02:03 | 39.08883 | -74.36915 | 37952 ft | 379 kts | 227° |
| 2026-05-08 02:04 | 39.04853 | -74.41279 | 37949 ft | 379 kts | 227° |
| 2026-05-08 02:04 | 39.00817 | -74.45632 | 37945 ft | 378 kts | 227° |
| 2026-05-08 02:05 | 38.96782 | -74.49972 | 37914 ft | 378 kts | 227° |
| 2026-05-08 02:05 | 38.92793 | -74.54299 | 37926 ft | 377 kts | 229° |
| 2026-05-08 02:06 | 38.88919 | -74.58807 | 37935 ft | 375 kts | 230° |
| 2026-05-08 02:06 | 38.85098 | -74.63374 | 37938 ft | 375 kts | 230° |
| 2026-05-08 02:07 | 38.81902 | -74.67149 | 37939 ft | 376 kts | 230° |
| 2026-05-08 02:07 | 38.77409 | -74.72384 | 37910 ft | 375 kts | 230° |
| 2026-05-08 02:08 | 38.73514 | -74.76840 | 37928 ft | 377 kts | 229° |
| 2026-05-08 02:08 | 38.69448 | -74.81101 | 37934 ft | 378 kts | 227° |
| 2026-05-08 02:09 | 38.66024 | -74.84585 | 37939 ft | 379 kts | 227° |
| 2026-05-08 02:09 | 38.61919 | -74.88799 | 37942 ft | 378 kts | 227° |
| 2026-05-08 02:10 | 38.57176 | -74.93719 | 37922 ft | 377 kts | 228° |
| 2026-05-08 02:10 | 38.53801 | -74.97232 | 37937 ft | 376 kts | 228° |
| 2026-05-08 02:11 | 38.49802 | -75.01515 | 37962 ft | 374 kts | 230° |
| 2026-05-08 02:11 | 38.45888 | -75.05879 | 37980 ft | 375 kts | 228° |
| 2026-05-08 02:12 | 38.41745 | -75.09976 | 37973 ft | 378 kts | 226° |
| 2026-05-08 02:12 | 38.37496 | -75.13912 | 37930 ft | 376 kts | 226° |
| 2026-05-08 02:13 | 38.33312 | -75.17811 | 37957 ft | 374 kts | 226° |
| 2026-05-08 02:13 | 38.29135 | -75.21758 | 37966 ft | 374 kts | 227° |
| 2026-05-08 02:14 | 38.24970 | -75.25711 | 37966 ft | 373 kts | 227° |
| 2026-05-08 02:14 | 38.20808 | -75.29654 | 37964 ft | 373 kts | 227° |
| 2026-05-08 02:15 | 38.16679 | -75.33553 | 37944 ft | 371 kts | 227° |
| 2026-05-08 02:15 | 38.12535 | -75.37455 | 37958 ft | 370 kts | 227° |
| 2026-05-08 02:16 | 38.08401 | -75.41340 | 37960 ft | 369 kts | 227° |
| 2026-05-08 02:16 | 38.04258 | -75.45189 | 37944 ft | 370 kts | 226° |
| 2026-05-08 02:17 | 37.99945 | -75.48745 | 37945 ft | 374 kts | 224° |
| 2026-05-08 02:17 | 37.95527 | -75.52196 | 37951 ft | 372 kts | 224° |
| 2026-05-08 02:18 | 37.91132 | -75.55658 | 37974 ft | 371 kts | 224° |
| 2026-05-08 02:18 | 37.86766 | -75.59140 | 37977 ft | 370 kts | 225° |
| 2026-05-08 02:19 | 37.82419 | -75.62629 | 37968 ft | 370 kts | 225° |
| 2026-05-08 02:19 | 37.78103 | -75.66092 | 37976 ft | 370 kts | 225° |
| 2026-05-08 02:20 | 37.73758 | -75.69564 | 37942 ft | 369 kts | 225° |
| 2026-05-08 02:20 | 37.69419 | -75.73021 | 37970 ft | 369 kts | 225° |
| 2026-05-08 02:21 | 37.65086 | -75.76477 | 37979 ft | 368 kts | 225° |
| 2026-05-08 02:21 | 37.60783 | -75.79899 | 37995 ft | 368 kts | 225° |
| 2026-05-08 02:22 | 37.56452 | -75.83337 | 37987 ft | 368 kts | 225° |
| 2026-05-08 02:22 | 37.52135 | -75.86797 | 37980 ft | 366 kts | 226° |
| 2026-05-08 02:23 | 37.47993 | -75.90463 | 37978 ft | 363 kts | 229° |
| 2026-05-08 02:23 | 37.43916 | -75.94205 | 37980 ft | 363 kts | 228° |
| 2026-05-08 02:24 | 37.39839 | -75.97886 | 37986 ft | 363 kts | 228° |
| 2026-05-08 02:24 | 37.35713 | -76.01563 | 37986 ft | 364 kts | 228° |
| 2026-05-08 02:25 | 37.31596 | -76.05217 | 37952 ft | 362 kts | 228° |
| 2026-05-08 02:25 | 37.27481 | -76.08869 | 37969 ft | 362 kts | 228° |
| 2026-05-08 02:26 | 37.23400 | -76.12492 | 37976 ft | 362 kts | 228° |
| 2026-05-08 02:26 | 37.19294 | -76.16133 | 37984 ft | 361 kts | 228° |
| 2026-05-08 02:27 | 37.15198 | -76.19764 | 37979 ft | 360 kts | 228° |
| 2026-05-08 02:27 | 37.11104 | -76.23377 | 37934 ft | 359 kts | 229° |
| 2026-05-08 02:28 | 37.07039 | -76.26950 | 37950 ft | 359 kts | 229° |
| 2026-05-08 02:28 | 37.02951 | -76.30549 | 37962 ft | 359 kts | 229° |
| 2026-05-08 02:29 | 36.98856 | -76.34151 | 37972 ft | 360 kts | 229° |
| 2026-05-08 02:29 | 36.94766 | -76.37749 | 37975 ft | 360 kts | 229° |
| 2026-05-08 02:30 | 36.90700 | -76.41310 | 37938 ft | 359 kts | 229° |
| 2026-05-08 02:30 | 36.86609 | -76.44904 | 37962 ft | 360 kts | 229° |
| 2026-05-08 02:31 | 36.82513 | -76.48499 | 37976 ft | 360 kts | 229° |
| 2026-05-08 02:31 | 36.78413 | -76.52084 | 38005 ft | 360 kts | 229° |
| 2026-05-08 02:32 | 36.74341 | -76.55633 | 38017 ft | 359 kts | 229° |
| 2026-05-08 02:32 | 36.70248 | -76.59195 | 37963 ft | 359 kts | 229° |
| 2026-05-08 02:33 | 36.66149 | -76.62760 | 37980 ft | 359 kts | 229° |
| 2026-05-08 02:33 | 36.62056 | -76.66322 | 37990 ft | 359 kts | 229° |
| 2026-05-08 02:34 | 36.57959 | -76.69882 | 37992 ft | 359 kts | 229° |
| 2026-05-08 02:34 | 36.53885 | -76.73414 | 37964 ft | 359 kts | 229° |
| 2026-05-08 02:35 | 36.49784 | -76.76968 | 37972 ft | 359 kts | 229° |
| 2026-05-08 02:35 | 36.45680 | -76.80523 | 37945 ft | 360 kts | 229° |
| 2026-05-08 02:36 | 36.41560 | -76.84082 | 37961 ft | 361 kts | 229° |
| 2026-05-08 02:36 | 36.37461 | -76.87608 | 37999 ft | 361 kts | 229° |
| 2026-05-08 02:37 | 36.33340 | -76.91155 | 38008 ft | 360 kts | 229° |
| 2026-05-08 02:37 | 36.29224 | -76.94698 | 38001 ft | 360 kts | 229° |
| 2026-05-08 02:38 | 36.25112 | -76.98232 | 37959 ft | 360 kts | 229° |
| 2026-05-08 02:38 | 36.20995 | -77.01763 | 37980 ft | 360 kts | 229° |
| 2026-05-08 02:39 | 36.16877 | -77.05296 | 37986 ft | 360 kts | 229° |
| 2026-05-08 02:39 | 36.12782 | -77.08805 | 37991 ft | 360 kts | 229° |
| 2026-05-08 02:40 | 36.08658 | -77.12333 | 37991 ft | 361 kts | 228° |
| 2026-05-08 02:40 | 36.06593 | -77.14096 | 37853 ft | 361 kts | 228° |
| 2026-05-08 02:40 | 36.04528 | -77.15856 | 37510 ft | 360 kts | 228° |
| 2026-05-08 02:41 | 36.02459 | -77.17621 | 37243 ft | 362 kts | 228° |
| 2026-05-08 02:41 | 36.00386 | -77.19389 | 36986 ft | 362 kts | 228° |
| 2026-05-08 02:41 | 35.98338 | -77.21130 | 36738 ft | 363 kts | 227° |
| 2026-05-08 02:41 | 35.96257 | -77.22898 | 36502 ft | 363 kts | 227° |
| 2026-05-08 02:42 | 35.94162 | -77.24641 | 36255 ft | 367 kts | 224° |
| 2026-05-08 02:42 | 35.91792 | -77.26005 | 35913 ft | 388 kts | 213° |
| 2026-05-08 02:42 | 35.89099 | -77.26789 | 35432 ft | 402 kts | 207° |
| 2026-05-08 02:42 | 35.86347 | -77.27433 | 34954 ft | 403 kts | 207° |
| 2026-05-08 02:43 | 35.83599 | -77.28071 | 34461 ft | 402 kts | 207° |
| 2026-05-08 02:43 | 35.80851 | -77.28713 | 33952 ft | 402 kts | 206° |
| 2026-05-08 02:43 | 35.78097 | -77.29364 | 33433 ft | 404 kts | 207° |
| 2026-05-08 02:43 | 35.75329 | -77.30028 | 32918 ft | 406 kts | 207° |
| 2026-05-08 02:44 | 35.72587 | -77.30693 | 32422 ft | 409 kts | 207° |
| 2026-05-08 02:44 | 35.69783 | -77.31373 | 31925 ft | 412 kts | 207° |
| 2026-05-08 02:44 | 35.66963 | -77.32056 | 31437 ft | 415 kts | 207° |
| 2026-05-08 02:44 | 35.64117 | -77.32740 | 30954 ft | 418 kts | 207° |
| 2026-05-08 02:45 | 35.61248 | -77.33424 | 30488 ft | 421 kts | 207° |
| 2026-05-08 02:45 | 35.58360 | -77.34106 | 30015 ft | 425 kts | 207° |
| 2026-05-08 02:45 | 35.55441 | -77.34794 | 29389 ft | 428 kts | 206° |
| 2026-05-08 02:45 | 35.52505 | -77.35486 | 28853 ft | 431 kts | 206° |
| 2026-05-08 02:46 | 35.49556 | -77.36181 | 28320 ft | 432 kts | 205° |
| 2026-05-08 02:46 | 35.46640 | -77.36868 | 27825 ft | 433 kts | 205° |
| 2026-05-08 02:46 | 35.43683 | -77.37561 | 27298 ft | 431 kts | 205° |
| 2026-05-08 02:46 | 35.40752 | -77.38245 | 26668 ft | 427 kts | 204° |
| 2026-05-08 02:47 | 35.37850 | -77.38922 | 26067 ft | 422 kts | 204° |
| 2026-05-08 02:47 | 35.34976 | -77.39595 | 25473 ft | 418 kts | 204° |
| 2026-05-08 02:47 | 35.32135 | -77.40265 | 24894 ft | 414 kts | 204° |
| 2026-05-08 02:47 | 35.29324 | -77.40930 | 24329 ft | 410 kts | 204° |
| 2026-05-08 02:48 | 35.26539 | -77.41590 | 23774 ft | 406 kts | 204° |
| 2026-05-08 02:48 | 35.23819 | -77.42235 | 23165 ft | 402 kts | 203° |
| 2026-05-08 02:48 | 35.21084 | -77.42885 | 22506 ft | 399 kts | 203° |
| 2026-05-08 02:48 | 35.18366 | -77.43530 | 21868 ft | 398 kts | 202° |
| 2026-05-08 02:49 | 35.15654 | -77.44173 | 21238 ft | 396 kts | 202° |
| 2026-05-08 02:49 | 35.12955 | -77.44816 | 20623 ft | 394 kts | 202° |
| 2026-05-08 02:49 | 35.10265 | -77.45454 | 20023 ft | 393 kts | 201° |
| 2026-05-08 02:49 | 35.07581 | -77.46088 | 19404 ft | 392 kts | 201° |
| 2026-05-08 02:50 | 35.04908 | -77.46717 | 18831 ft | 391 kts | 201° |
| 2026-05-08 02:50 | 35.02275 | -77.47333 | 18272 ft | 390 kts | 200° |
| 2026-05-08 02:50 | 34.99612 | -77.47952 | 17620 ft | 389 kts | 200° |
| 2026-05-08 02:50 | 34.96961 | -77.48568 | 17034 ft | 386 kts | 200° |
| 2026-05-08 02:51 | 34.94336 | -77.49178 | 16503 ft | 382 kts | 199° |
| 2026-05-08 02:51 | 34.91743 | -77.49779 | 15982 ft | 377 kts | 199° |
| 2026-05-08 02:51 | 34.89181 | -77.50374 | 15471 ft | 373 kts | 199° |
| 2026-05-08 02:51 | 34.86642 | -77.50963 | 14967 ft | 370 kts | 199° |
| 2026-05-08 02:52 | 34.84132 | -77.51545 | 14439 ft | 365 kts | 198° |
| 2026-05-08 02:52 | 34.81648 | -77.52124 | 13947 ft | 361 kts | 198° |
| 2026-05-08 02:52 | 34.79188 | -77.52702 | 13423 ft | 358 kts | 197° |
| 2026-05-08 02:52 | 34.76788 | -77.53267 | 12886 ft | 355 kts | 198° |
| 2026-05-08 02:53 | 34.74370 | -77.53834 | 12306 ft | 352 kts | 198° |
| 2026-05-08 02:53 | 34.71972 | -77.54393 | 11781 ft | 350 kts | 197° |
| 2026-05-08 02:53 | 34.69594 | -77.54947 | 11322 ft | 347 kts | 197° |
| 2026-05-08 02:53 | 34.67223 | -77.55498 | 10990 ft | 346 kts | 198° |
| 2026-05-08 02:54 | 34.64863 | -77.56047 | 10702 ft | 345 kts | 197° |
| 2026-05-08 02:54 | 34.62510 | -77.56595 | 10417 ft | 344 kts | 198° |
| 2026-05-08 02:54 | 34.60168 | -77.57140 | 10119 ft | 342 kts | 198° |
| 2026-05-08 02:54 | 34.57850 | -77.57677 | 9831 ft | 334 kts | 198° |
| 2026-05-08 02:55 | 34.55637 | -77.58184 | 9521 ft | 323 kts | 198° |
| 2026-05-08 02:55 | 34.51340 | -77.59169 | 8910 ft | 306 kts | 198° |
| 2026-05-08 02:55 | 34.49272 | -77.59647 | 8606 ft | 300 kts | 198° |
| 2026-05-08 02:56 | 34.47245 | -77.60118 | 8309 ft | 294 kts | 198° |
| 2026-05-08 02:56 | 34.45253 | -77.60578 | 8033 ft | 288 kts | 198° |
| 2026-05-08 02:56 | 34.43303 | -77.61028 | 7762 ft | 283 kts | 198° |
| 2026-05-08 02:56 | 34.41412 | -77.61466 | 7497 ft | 278 kts | 198° |
| 2026-05-08 02:57 | 34.39525 | -77.61902 | 7230 ft | 274 kts | 198° |
| 2026-05-08 02:57 | 34.37665 | -77.62333 | 6963 ft | 271 kts | 198° |
| 2026-05-08 02:57 | 34.35818 | -77.62763 | 6684 ft | 269 kts | 198° |
| 2026-05-08 02:57 | 34.33982 | -77.63189 | 6427 ft | 268 kts | 198° |
| 2026-05-08 02:58 | 34.32148 | -77.63615 | 6152 ft | 269 kts | 198° |
| 2026-05-08 02:58 | 34.30311 | -77.64042 | 5883 ft | 269 kts | 198° |
| 2026-05-08 02:58 | 34.28476 | -77.64468 | 5607 ft | 268 kts | 198° |
| 2026-05-08 02:58 | 34.26647 | -77.64891 | 5334 ft | 267 kts | 198° |
| 2026-05-08 02:59 | 34.24846 | -77.65308 | 5072 ft | 268 kts | 198° |
| 2026-05-08 02:59 | 34.23010 | -77.65730 | 4804 ft | 267 kts | 197° |
| 2026-05-08 02:59 | 34.21189 | -77.66145 | 4525 ft | 267 kts | 197° |
| 2026-05-08 02:59 | 34.19364 | -77.66560 | 4249 ft | 266 kts | 197° |
| 2026-05-08 03:00 | 34.17543 | -77.66977 | 3974 ft | 267 kts | 197° |
| 2026-05-08 03:00 | 34.15713 | -77.67397 | 3700 ft | 268 kts | 197° |
| 2026-05-08 03:00 | 34.13901 | -77.67883 | 3429 ft | 264 kts | 205° |
| 2026-05-08 03:00 | 34.12317 | -77.68902 | 3164 ft | 255 kts | 224° |
| 2026-05-08 03:01 | 34.11148 | -77.70372 | 3017 ft | 239 kts | 240° |
| 2026-05-08 03:01 | 34.10417 | -77.72070 | 3014 ft | 219 kts | 254° |
| 2026-05-08 03:01 | 34.09886 | -77.73771 | 3018 ft | 215 kts | 253° |
| 2026-05-08 03:01 | 34.09363 | -77.75425 | 3014 ft | 204 kts | 253° |
| 2026-05-08 03:02 | 34.08876 | -77.76959 | 3012 ft | 187 kts | 254° |
| 2026-05-08 03:02 | 34.08427 | -77.78379 | 3047 ft | 177 kts | 254° |
| 2026-05-08 03:02 | 34.08006 | -77.79757 | 3014 ft | 172 kts | 259° |
| 2026-05-08 03:02 | 34.08075 | -77.81136 | 3013 ft | 166 kts | 295° |
| 2026-05-08 03:03 | 34.08864 | -77.82130 | 3037 ft | 170 kts | 329° |
| 2026-05-08 03:03 | 34.09969 | -77.82638 | 3045 ft | 173 kts | 334° |
| 2026-05-08 03:03 | 34.11020 | -77.83111 | 3042 ft | 148 kts | 333° |
| 2026-05-08 03:03 | 34.11958 | -77.83538 | 2936 ft | 140 kts | 333° |
| 2026-05-08 03:04 | 34.12858 | -77.83949 | 2816 ft | 137 kts | 333° |
| 2026-05-08 03:04 | 34.13738 | -77.84351 | 2648 ft | 134 kts | 335° |
| 2026-05-08 03:04 | 34.14612 | -77.84750 | 2483 ft | 134 kts | 335° |
| 2026-05-08 03:04 | 34.15484 | -77.85148 | 2319 ft | 134 kts | 335° |
| 2026-05-08 03:05 | 34.16357 | -77.85545 | 2134 ft | 134 kts | 338° |
| 2026-05-08 03:05 | 34.17226 | -77.85942 | 1956 ft | 133 kts | 339° |
| 2026-05-08 03:05 | 34.18097 | -77.86339 | 1782 ft | 133 kts | 341° |
| 2026-05-08 03:05 | 34.18947 | -77.86726 | 1610 ft | 132 kts | 341° |
| 2026-05-08 03:06 | 34.19809 | -77.87119 | 1428 ft | 132 kts | 341° |
| 2026-05-08 03:06 | 34.20667 | -77.87511 | 1256 ft | 132 kts | 341° |
| 2026-05-08 03:06 | 34.21526 | -77.87903 | 1072 ft | 130 kts | 342° |
| 2026-05-08 03:06 | 34.22379 | -77.88295 | 882 ft | 134 kts | 342° |
| 2026-05-08 03:07 | 34.23243 | -77.88696 | 702 ft | 135 kts | 342° |
| 2026-05-08 03:07 | 34.24105 | -77.89090 | 522 ft | 132 kts | 343° |
| 2026-05-08 03:07 | 34.24945 | -77.89467 | 331 ft | 132 kts | 341° |
| 2026-05-08 03:07 | 34.25798 | -77.89863 | 172 ft | 130 kts | 340° |
| 2026-05-08 03:08 | 34.26650 | -77.90246 | 54 ft | 130 kts | 340° |
| 2026-05-08 03:08 | 34.27365 | -77.90568 | 39 ft | 74 kts | 339° |
| 2026-05-08 03:08 | 34.27570 | -77.90661 | 40 ft | 1 kts | 339° |
| 2026-05-08 03:08 | 34.27615 | -77.90680 | 40 ft | 14 kts | 340° |
| 2026-05-08 03:09 | 34.27735 | -77.90736 | 40 ft | 13 kts | 340° |
| 2026-05-08 03:09 | 34.27866 | -77.90796 | 41 ft | 22 kts | 338° |
| 2026-05-08 03:09 | 34.28032 | -77.90871 | 41 ft | 21 kts | 338° |
| 2026-05-08 03:09 | 34.28050 | -77.91000 | 41 ft | 17 kts | 234° |
| 2026-05-08 03:10 | 34.27987 | -77.91031 | 41 ft | 5 kts | 176° |
| 2026-05-08 03:10 | 34.27977 | -77.91029 | 41 ft | 1 kts | 169° |
| 2026-05-08 03:10 | 34.27918 | -77.91018 | 41 ft | 14 kts | 171° |
| 2026-05-08 03:10 | 34.27907 | -77.91016 | 41 ft | 0 kts | 170° |
| 2026-05-08 03:12 | 34.27878 | -77.91010 | 41 ft | 8 kts | 170° |
| 2026-05-08 03:12 | 34.27790 | -77.90991 | 41 ft | 19 kts | 171° |
| 2026-05-08 03:12 | 34.27669 | -77.90965 | 41 ft | 18 kts | 170° |
| 2026-05-08 03:12 | 34.27538 | -77.90933 | 41 ft | 20 kts | 167° |
| 2026-05-08 03:13 | 34.27429 | -77.90897 | 41 ft | 11 kts | 151° |
| 2026-05-08 03:13 | 34.27358 | -77.90847 | 41 ft | 13 kts | 150° |
| 2026-05-08 03:13 | 34.27278 | -77.90794 | 41 ft | 13 kts | 152° |
| 2026-05-08 03:13 | 34.27219 | -77.90757 | 41 ft | 0 kts | 153° |
| 2026-05-08 03:15 | 34.27208 | -77.90750 | 41 ft | 8 kts | 153° |
| 2026-05-08 03:15 | 34.27122 | -77.90691 | 41 ft | 17 kts | 146° |
| 2026-05-08 03:15 | 34.27015 | -77.90615 | 39 ft | 19 kts | 156° |
| 2026-05-08 03:15 | 34.26932 | -77.90583 | 41 ft | 5 kts | 162° |
| 2026-05-08 03:16 | 34.26886 | -77.90564 | 41 ft | 9 kts | 160° |
| 2026-05-08 03:16 | 34.26818 | -77.90550 | 41 ft | 11 kts | 201° |
| 2026-05-08 03:16 | 34.26804 | -77.90642 | 41 ft | 14 kts | 269° |
| 2026-05-08 03:16 | 34.26795 | -77.90761 | 41 ft | 11 kts | 258° |
| 2026-05-08 03:17 | 34.26774 | -77.90845 | 41 ft | 10 kts | 256° |
| 2026-05-08 03:17 | 34.26754 | -77.90884 | 41 ft | 1 kts | 225° |
| 2026-05-08 03:17 | 34.26740 | -77.90895 | 40 ft | 4 kts | 212° |
| 2026-05-08 03:17 | 34.26731 | -77.90902 | 41 ft | 0 kts | 212° |